sensor_id;sensor_type;location;lat;lon;timestamp;temperature;humidity
13928;DHT22;7036;50.834;4.718;2022-10-16T00:00:50;19.20;68.30
13928;DHT22;7036;50.834;4.718;2022-10-16T00:03:18;19.20;68.10
13928;DHT22;7036;50.834;4.718;2022-10-16T00:05:46;19.20;68.70
13928;DHT22;7036;50.834;4.718;2022-10-16T00:08:13;19.20;68.00
13928;DHT22;7036;50.834;4.718;2022-10-16T00:10:44;19.20;68.20
13928;DHT22;7036;50.834;4.718;2022-10-16T00:13:08;19.20;68.10
13928;DHT22;7036;50.834;4.718;2022-10-16T00:15:36;19.20;68.10
13928;DHT22;7036;50.834;4.718;2022-10-16T00:18:04;19.20;68.00
13928;DHT22;7036;50.834;4.718;2022-10-16T00:20:33;19.20;68.00
13928;DHT22;7036;50.834;4.718;2022-10-16T00:22:59;19.20;68.10
13928;DHT22;7036;50.834;4.718;2022-10-16T00:25:27;19.20;67.80
13928;DHT22;7036;50.834;4.718;2022-10-16T00:27:55;19.20;68.10
13928;DHT22;7036;50.834;4.718;2022-10-16T00:30:23;19.20;68.10
13928;DHT22;7036;50.834;4.718;2022-10-16T00:32:51;19.20;68.10
13928;DHT22;7036;50.834;4.718;2022-10-16T00:35:19;19.20;68.20
13928;DHT22;7036;50.834;4.718;2022-10-16T00:37:47;19.20;68.10
13928;DHT22;7036;50.834;4.718;2022-10-16T00:40:14;19.20;68.00
13928;DHT22;7036;50.834;4.718;2022-10-16T00:42:42;19.20;68.40
13928;DHT22;7036;50.834;4.718;2022-10-16T00:45:09;19.20;68.00
13928;DHT22;7036;50.834;4.718;2022-10-16T00:47:40;19.20;68.00
13928;DHT22;7036;50.834;4.718;2022-10-16T00:50:28;19.20;68.00
13928;DHT22;7036;50.834;4.718;2022-10-16T00:52:53;19.20;68.00
13928;DHT22;7036;50.834;4.718;2022-10-16T00:55:22;19.20;68.10
13928;DHT22;7036;50.834;4.718;2022-10-16T00:57:50;19.20;68.00
13928;DHT22;7036;50.834;4.718;2022-10-16T01:00:17;19.10;67.90
13928;DHT22;7036;50.834;4.718;2022-10-16T01:02:43;19.10;68.00
13928;DHT22;7036;50.834;4.718;2022-10-16T01:05:11;19.20;67.30
13928;DHT22;7036;50.834;4.718;2022-10-16T01:13:16;19.10;67.90
13928;DHT22;7036;50.834;4.718;2022-10-16T01:18:24;19.20;67.90
13928;DHT22;7036;50.834;4.718;2022-10-16T01:20:58;19.10;67.90
13928;DHT22;7036;50.834;4.718;2022-10-16T01:28:47;19.10;67.80
13928;DHT22;7036;50.834;4.718;2022-10-16T01:31:14;19.10;68.60
13928;DHT22;7036;50.834;4.718;2022-10-16T01:33:43;19.10;67.80
13928;DHT22;7036;50.834;4.718;2022-10-16T01:36:10;19.10;67.80
13928;DHT22;7036;50.834;4.718;2022-10-16T01:38:38;19.10;67.70
13928;DHT22;7036;50.834;4.718;2022-10-16T01:41:13;19.10;67.80
13928;DHT22;7036;50.834;4.718;2022-10-16T01:43:35;19.20;67.90
13928;DHT22;7036;50.834;4.718;2022-10-16T01:46:02;19.10;68.00
13928;DHT22;7036;50.834;4.718;2022-10-16T01:48:30;19.10;67.90
13928;DHT22;7036;50.834;4.718;2022-10-16T01:51:02;19.10;68.00
13928;DHT22;7036;50.834;4.718;2022-10-16T01:53:26;19.10;68.00
13928;DHT22;7036;50.834;4.718;2022-10-16T01:55:54;19.10;67.90
13928;DHT22;7036;50.834;4.718;2022-10-16T01:58:21;19.10;67.70
13928;DHT22;7036;50.834;4.718;2022-10-16T02:00:49;19.10;68.40
13928;DHT22;7036;50.834;4.718;2022-10-16T02:03:17;19.10;67.90
13928;DHT22;7036;50.834;4.718;2022-10-16T02:08:19;19.10;67.80
13928;DHT22;7036;50.834;4.718;2022-10-16T02:10:45;19.10;67.70
13928;DHT22;7036;50.834;4.718;2022-10-16T02:13:13;19.10;67.70
13928;DHT22;7036;50.834;4.718;2022-10-16T02:15:39;19.10;67.70
13928;DHT22;7036;50.834;4.718;2022-10-16T02:18:07;19.20;67.90
13928;DHT22;7036;50.834;4.718;2022-10-16T02:20:57;19.10;67.70
13928;DHT22;7036;50.834;4.718;2022-10-16T02:23:02;19.10;68.40
13928;DHT22;7036;50.834;4.718;2022-10-16T02:25:30;19.10;67.60
13928;DHT22;7036;50.834;4.718;2022-10-16T02:28:11;19.10;67.80
13928;DHT22;7036;50.834;4.718;2022-10-16T02:30:45;19.10;67.70
13928;DHT22;7036;50.834;4.718;2022-10-16T02:33:11;19.10;67.80
13928;DHT22;7036;50.834;4.718;2022-10-16T02:35:38;19.10;67.70
13928;DHT22;7036;50.834;4.718;2022-10-16T02:38:05;19.10;67.70
13928;DHT22;7036;50.834;4.718;2022-10-16T02:40:33;19.10;67.90
13928;DHT22;7036;50.834;4.718;2022-10-16T02:43:02;19.10;68.40
13928;DHT22;7036;50.834;4.718;2022-10-16T02:45:28;19.10;67.70
13928;DHT22;7036;50.834;4.718;2022-10-16T02:47:56;19.10;67.90
13928;DHT22;7036;50.834;4.718;2022-10-16T02:50:23;19.10;67.70
13928;DHT22;7036;50.834;4.718;2022-10-16T02:52:52;19.10;67.80
13928;DHT22;7036;50.834;4.718;2022-10-16T02:55:19;19.10;67.60
13928;DHT22;7036;50.834;4.718;2022-10-16T02:57:46;19.10;67.70
13928;DHT22;7036;50.834;4.718;2022-10-16T03:00:15;19.10;67.90
13928;DHT22;7036;50.834;4.718;2022-10-16T03:02:41;19.10;67.70
13928;DHT22;7036;50.834;4.718;2022-10-16T03:05:09;19.10;67.60
13928;DHT22;7036;50.834;4.718;2022-10-16T03:07:36;19.10;67.70
13928;DHT22;7036;50.834;4.718;2022-10-16T03:10:04;19.10;67.80
13928;DHT22;7036;50.834;4.718;2022-10-16T03:12:31;19.10;67.70
13928;DHT22;7036;50.834;4.718;2022-10-16T03:14:58;19.10;67.60
13928;DHT22;7036;50.834;4.718;2022-10-16T03:17:25;19.10;67.70
13928;DHT22;7036;50.834;4.718;2022-10-16T03:19:53;19.10;67.80
13928;DHT22;7036;50.834;4.718;2022-10-16T03:22:20;19.10;67.60
13928;DHT22;7036;50.834;4.718;2022-10-16T03:24:48;19.10;68.10
13928;DHT22;7036;50.834;4.718;2022-10-16T03:27:15;19.10;67.60
13928;DHT22;7036;50.834;4.718;2022-10-16T03:29:42;19.10;67.60
13928;DHT22;7036;50.834;4.718;2022-10-16T03:32:10;19.10;67.60
13928;DHT22;7036;50.834;4.718;2022-10-16T03:34:37;19.10;67.70
13928;DHT22;7036;50.834;4.718;2022-10-16T03:37:04;19.10;67.70
13928;DHT22;7036;50.834;4.718;2022-10-16T03:39:32;19.10;67.20
13928;DHT22;7036;50.834;4.718;2022-10-16T03:41:59;19.10;67.60
13928;DHT22;7036;50.834;4.718;2022-10-16T03:44:26;19.10;67.60
13928;DHT22;7036;50.834;4.718;2022-10-16T03:46:53;19.10;67.60
13928;DHT22;7036;50.834;4.718;2022-10-16T03:49:21;19.00;67.70
13928;DHT22;7036;50.834;4.718;2022-10-16T03:51:48;19.00;67.50
13928;DHT22;7036;50.834;4.718;2022-10-16T03:54:16;19.00;67.60
13928;DHT22;7036;50.834;4.718;2022-10-16T03:56:43;19.10;67.60
13928;DHT22;7036;50.834;4.718;2022-10-16T03:59:10;19.00;67.60
13928;DHT22;7036;50.834;4.718;2022-10-16T04:01:38;19.00;67.70
13928;DHT22;7036;50.834;4.718;2022-10-16T04:04:05;19.00;67.60
13928;DHT22;7036;50.834;4.718;2022-10-16T04:06:32;19.00;67.60
13928;DHT22;7036;50.834;4.718;2022-10-16T04:08:59;19.00;67.60
13928;DHT22;7036;50.834;4.718;2022-10-16T04:11:27;19.00;67.50
13928;DHT22;7036;50.834;4.718;2022-10-16T04:13:55;19.00;67.50
13928;DHT22;7036;50.834;4.718;2022-10-16T04:16:21;19.00;67.50
13928;DHT22;7036;50.834;4.718;2022-10-16T04:18:49;19.00;67.70
13928;DHT22;7036;50.834;4.718;2022-10-16T04:21:17;19.00;67.60
13928;DHT22;7036;50.834;4.718;2022-10-16T04:23:44;19.00;67.60
13928;DHT22;7036;50.834;4.718;2022-10-16T04:26:11;19.00;67.60
13928;DHT22;7036;50.834;4.718;2022-10-16T04:28:39;19.00;67.60
13928;DHT22;7036;50.834;4.718;2022-10-16T04:31:06;19.00;67.60
13928;DHT22;7036;50.834;4.718;2022-10-16T04:33:33;19.00;68.30
13928;DHT22;7036;50.834;4.718;2022-10-16T04:36:02;19.00;67.60
13928;DHT22;7036;50.834;4.718;2022-10-16T04:38:29;19.00;67.50
13928;DHT22;7036;50.834;4.718;2022-10-16T04:40:56;19.00;67.50
13928;DHT22;7036;50.834;4.718;2022-10-16T04:43:24;19.00;67.80
13928;DHT22;7036;50.834;4.718;2022-10-16T04:45:51;19.00;67.50
13928;DHT22;7036;50.834;4.718;2022-10-16T04:48:20;19.00;66.90
13928;DHT22;7036;50.834;4.718;2022-10-16T04:50:47;19.00;67.50
13928;DHT22;7036;50.834;4.718;2022-10-16T04:53:14;19.00;67.60
13928;DHT22;7036;50.834;4.718;2022-10-16T04:55:42;19.00;67.70
13928;DHT22;7036;50.834;4.718;2022-10-16T04:58:10;19.00;67.60
13928;DHT22;7036;50.834;4.718;2022-10-16T05:00:37;19.00;66.80
13928;DHT22;7036;50.834;4.718;2022-10-16T05:03:04;19.00;67.50
13928;DHT22;7036;50.834;4.718;2022-10-16T05:05:32;19.00;67.40
13928;DHT22;7036;50.834;4.718;2022-10-16T05:07:59;19.00;67.80
13928;DHT22;7036;50.834;4.718;2022-10-16T05:10:27;19.00;67.50
13928;DHT22;7036;50.834;4.718;2022-10-16T05:12:55;19.00;67.40
13928;DHT22;7036;50.834;4.718;2022-10-16T05:15:23;19.00;67.60
13928;DHT22;7036;50.834;4.718;2022-10-16T05:17:52;19.00;67.50
13928;DHT22;7036;50.834;4.718;2022-10-16T05:20:18;19.00;67.70
13928;DHT22;7036;50.834;4.718;2022-10-16T05:22:46;19.00;67.40
13928;DHT22;7036;50.834;4.718;2022-10-16T05:25:14;19.00;67.40
13928;DHT22;7036;50.834;4.718;2022-10-16T05:27:40;19.00;67.50
13928;DHT22;7036;50.834;4.718;2022-10-16T05:30:08;19.00;67.60
13928;DHT22;7036;50.834;4.718;2022-10-16T05:32:35;19.00;67.60
13928;DHT22;7036;50.834;4.718;2022-10-16T05:35:02;19.00;67.60
13928;DHT22;7036;50.834;4.718;2022-10-16T05:37:29;19.00;67.50
13928;DHT22;7036;50.834;4.718;2022-10-16T05:39:57;19.00;67.50
13928;DHT22;7036;50.834;4.718;2022-10-16T05:42:27;18.90;68.30
13928;DHT22;7036;50.834;4.718;2022-10-16T05:44:53;18.90;67.50
13928;DHT22;7036;50.834;4.718;2022-10-16T05:47:20;19.00;67.50
13928;DHT22;7036;50.834;4.718;2022-10-16T05:49:48;19.00;67.50
13928;DHT22;7036;50.834;4.718;2022-10-16T05:52:15;19.00;66.80
13928;DHT22;7036;50.834;4.718;2022-10-16T05:54:42;19.00;67.50
13928;DHT22;7036;50.834;4.718;2022-10-16T05:57:09;18.90;67.50
13928;DHT22;7036;50.834;4.718;2022-10-16T05:59:37;18.90;67.40
13928;DHT22;7036;50.834;4.718;2022-10-16T06:02:04;18.90;67.40
13928;DHT22;7036;50.834;4.718;2022-10-16T06:04:31;18.90;67.40
13928;DHT22;7036;50.834;4.718;2022-10-16T06:06:59;18.90;67.30
13928;DHT22;7036;50.834;4.718;2022-10-16T06:09:27;18.90;66.60
13928;DHT22;7036;50.834;4.718;2022-10-16T06:11:54;19.00;67.20
13928;DHT22;7036;50.834;4.718;2022-10-16T06:14:22;19.00;67.30
13928;DHT22;7036;50.834;4.718;2022-10-16T06:16:49;18.90;67.10
13928;DHT22;7036;50.834;4.718;2022-10-16T06:19:18;19.00;67.40
13928;DHT22;7036;50.834;4.718;2022-10-16T06:21:45;19.00;67.30
13928;DHT22;7036;50.834;4.718;2022-10-16T06:24:13;19.00;67.40
13928;DHT22;7036;50.834;4.718;2022-10-16T06:26:40;19.00;67.30
13928;DHT22;7036;50.834;4.718;2022-10-16T06:29:08;19.00;67.40
13928;DHT22;7036;50.834;4.718;2022-10-16T06:31:36;19.00;67.50
13928;DHT22;7036;50.834;4.718;2022-10-16T06:34:04;19.00;67.50
13928;DHT22;7036;50.834;4.718;2022-10-16T06:36:32;19.00;68.30
13928;DHT22;7036;50.834;4.718;2022-10-16T06:39:00;19.00;67.50
13928;DHT22;7036;50.834;4.718;2022-10-16T06:41:27;19.00;67.40
13928;DHT22;7036;50.834;4.718;2022-10-16T06:43:55;19.00;67.60
13928;DHT22;7036;50.834;4.718;2022-10-16T06:46:23;19.00;67.40
13928;DHT22;7036;50.834;4.718;2022-10-16T06:48:52;19.00;67.50
13928;DHT22;7036;50.834;4.718;2022-10-16T06:51:20;19.00;67.50
13928;DHT22;7036;50.834;4.718;2022-10-16T06:53:48;19.00;67.50
13928;DHT22;7036;50.834;4.718;2022-10-16T06:56:16;19.00;67.60
13928;DHT22;7036;50.834;4.718;2022-10-16T06:58:42;19.00;67.50
13928;DHT22;7036;50.834;4.718;2022-10-16T07:01:10;19.00;67.60
13928;DHT22;7036;50.834;4.718;2022-10-16T07:03:42;19.00;67.70
13928;DHT22;7036;50.834;4.718;2022-10-16T07:06:11;19.00;68.00
13928;DHT22;7036;50.834;4.718;2022-10-16T07:08:41;19.00;68.20
13928;DHT22;7036;50.834;4.718;2022-10-16T07:11:09;19.00;69.30
13928;DHT22;7036;50.834;4.718;2022-10-16T07:13:35;19.00;68.40
13928;DHT22;7036;50.834;4.718;2022-10-16T07:16:09;19.00;68.60
13928;DHT22;7036;50.834;4.718;2022-10-16T07:18:35;19.00;68.60
13928;DHT22;7036;50.834;4.718;2022-10-16T07:21:15;19.00;68.50
13928;DHT22;7036;50.834;4.718;2022-10-16T07:23:38;19.00;68.30
13928;DHT22;7036;50.834;4.718;2022-10-16T07:26:06;19.00;68.20
13928;DHT22;7036;50.834;4.718;2022-10-16T07:28:33;19.00;68.10
13928;DHT22;7036;50.834;4.718;2022-10-16T07:31:04;19.00;67.90
13928;DHT22;7036;50.834;4.718;2022-10-16T07:33:30;19.10;68.00
13928;DHT22;7036;50.834;4.718;2022-10-16T07:35:57;19.10;68.10
13928;DHT22;7036;50.834;4.718;2022-10-16T07:38:25;19.10;68.20
13928;DHT22;7036;50.834;4.718;2022-10-16T07:41:00;19.10;68.30
13928;DHT22;7036;50.834;4.718;2022-10-16T07:43:26;19.10;68.20
13928;DHT22;7036;50.834;4.718;2022-10-16T07:45:54;19.10;68.30
13928;DHT22;7036;50.834;4.718;2022-10-16T07:48:22;19.10;68.20
13928;DHT22;7036;50.834;4.718;2022-10-16T07:50:48;19.10;68.20
13928;DHT22;7036;50.834;4.718;2022-10-16T07:53:20;19.10;68.20
13928;DHT22;7036;50.834;4.718;2022-10-16T07:55:47;19.10;68.40
13928;DHT22;7036;50.834;4.718;2022-10-16T07:58:15;19.10;69.00
13928;DHT22;7036;50.834;4.718;2022-10-16T08:00:43;19.10;68.40
13928;DHT22;7036;50.834;4.718;2022-10-16T08:03:10;19.10;68.30
13928;DHT22;7036;50.834;4.718;2022-10-16T08:05:38;19.10;68.40
13928;DHT22;7036;50.834;4.718;2022-10-16T08:08:06;19.10;68.40
13928;DHT22;7036;50.834;4.718;2022-10-16T08:10:34;19.10;68.50
13928;DHT22;7036;50.834;4.718;2022-10-16T08:13:00;19.10;68.40
13928;DHT22;7036;50.834;4.718;2022-10-16T08:15:28;19.10;68.60
13928;DHT22;7036;50.834;4.718;2022-10-16T08:17:56;19.00;68.50
13928;DHT22;7036;50.834;4.718;2022-10-16T08:20:24;19.00;68.60
13928;DHT22;7036;50.834;4.718;2022-10-16T08:22:51;19.00;68.60
13928;DHT22;7036;50.834;4.718;2022-10-16T08:25:18;19.10;68.80
13928;DHT22;7036;50.834;4.718;2022-10-16T08:27:45;19.00;68.80
13928;DHT22;7036;50.834;4.718;2022-10-16T08:30:12;19.10;68.80
13928;DHT22;7036;50.834;4.718;2022-10-16T08:32:40;19.10;68.80
13928;DHT22;7036;50.834;4.718;2022-10-16T08:35:08;19.10;68.90
13928;DHT22;7036;50.834;4.718;2022-10-16T08:37:36;19.10;68.90
13928;DHT22;7036;50.834;4.718;2022-10-16T08:40:05;19.10;68.80
13928;DHT22;7036;50.834;4.718;2022-10-16T08:45:33;19.10;68.80
13928;DHT22;7036;50.834;4.718;2022-10-16T08:50:46;19.10;68.70
13928;DHT22;7036;50.834;4.718;2022-10-16T08:53:31;19.10;68.60
13928;DHT22;7036;50.834;4.718;2022-10-16T08:55:57;19.10;68.70
13928;DHT22;7036;50.834;4.718;2022-10-16T08:58:28;19.10;68.60
13928;DHT22;7036;50.834;4.718;2022-10-16T09:00:54;19.10;68.60
13928;DHT22;7036;50.834;4.718;2022-10-16T09:03:35;19.20;68.90
13928;DHT22;7036;50.834;4.718;2022-10-16T09:06:12;19.20;68.80
13928;DHT22;7036;50.834;4.718;2022-10-16T09:11:34;19.20;68.80
13928;DHT22;7036;50.834;4.718;2022-10-16T09:14:03;19.20;68.90
13928;DHT22;7036;50.834;4.718;2022-10-16T09:21:42;19.20;68.90
13928;DHT22;7036;50.834;4.718;2022-10-16T09:24:13;19.20;69.00
13928;DHT22;7036;50.834;4.718;2022-10-16T09:26:38;19.20;68.80
13928;DHT22;7036;50.834;4.718;2022-10-16T09:29:08;19.20;68.90
13928;DHT22;7036;50.834;4.718;2022-10-16T09:31:35;19.30;68.80
13928;DHT22;7036;50.834;4.718;2022-10-16T09:34:02;19.30;68.90
13928;DHT22;7036;50.834;4.718;2022-10-16T09:36:29;19.30;68.80
13928;DHT22;7036;50.834;4.718;2022-10-16T09:39:06;19.30;68.80
13928;DHT22;7036;50.834;4.718;2022-10-16T09:41:29;19.30;68.90
13928;DHT22;7036;50.834;4.718;2022-10-16T09:43:57;19.30;68.90
13928;DHT22;7036;50.834;4.718;2022-10-16T09:46:26;19.30;68.90
13928;DHT22;7036;50.834;4.718;2022-10-16T09:48:53;19.30;68.80
13928;DHT22;7036;50.834;4.718;2022-10-16T09:51:34;19.30;68.90
13928;DHT22;7036;50.834;4.718;2022-10-16T09:56:37;19.30;68.70
13928;DHT22;7036;50.834;4.718;2022-10-16T09:59:19;19.30;68.80
13928;DHT22;7036;50.834;4.718;2022-10-16T10:01:50;19.30;68.70
13928;DHT22;7036;50.834;4.718;2022-10-16T10:04:20;19.30;68.70
13928;DHT22;7036;50.834;4.718;2022-10-16T10:06:55;19.30;68.60
13928;DHT22;7036;50.834;4.718;2022-10-16T10:09:32;19.30;68.60
13928;DHT22;7036;50.834;4.718;2022-10-16T10:11:58;19.30;68.70
13928;DHT22;7036;50.834;4.718;2022-10-16T10:14:32;19.30;68.70
13928;DHT22;7036;50.834;4.718;2022-10-16T10:17:10;19.30;68.50
13928;DHT22;7036;50.834;4.718;2022-10-16T10:19:46;19.30;68.50
13928;DHT22;7036;50.834;4.718;2022-10-16T10:24:54;19.30;68.50
13928;DHT22;7036;50.834;4.718;2022-10-16T10:27:13;19.30;68.30
13928;DHT22;7036;50.834;4.718;2022-10-16T10:29:46;19.30;68.70
13928;DHT22;7036;50.834;4.718;2022-10-16T10:32:12;19.30;68.30
13928;DHT22;7036;50.834;4.718;2022-10-16T10:34:56;19.30;68.40
13928;DHT22;7036;50.834;4.718;2022-10-16T10:40:07;19.30;68.20
13928;DHT22;7036;50.834;4.718;2022-10-16T10:42:35;19.30;68.30
13928;DHT22;7036;50.834;4.718;2022-10-16T10:45:17;19.30;68.10
13928;DHT22;7036;50.834;4.718;2022-10-16T10:48:02;19.40;68.00
13928;DHT22;7036;50.834;4.718;2022-10-16T10:53:27;19.40;68.20
13928;DHT22;7036;50.834;4.718;2022-10-16T11:00:45;19.40;68.50
13928;DHT22;7036;50.834;4.718;2022-10-16T11:05:51;19.40;68.30
13928;DHT22;7036;50.834;4.718;2022-10-16T11:08:22;19.40;68.30
13928;DHT22;7036;50.834;4.718;2022-10-16T11:11:49;19.50;68.70
13928;DHT22;7036;50.834;4.718;2022-10-16T11:16:33;19.50;68.60
13928;DHT22;7036;50.834;4.718;2022-10-16T11:19:05;19.50;68.80
13928;DHT22;7036;50.834;4.718;2022-10-16T11:21:30;19.50;68.70
13928;DHT22;7036;50.834;4.718;2022-10-16T11:24:16;19.50;68.80
13928;DHT22;7036;50.834;4.718;2022-10-16T11:26:33;19.50;68.90
13928;DHT22;7036;50.834;4.718;2022-10-16T11:28:57;19.50;69.10
13928;DHT22;7036;50.834;4.718;2022-10-16T11:31:29;19.50;69.00
13928;DHT22;7036;50.834;4.718;2022-10-16T11:34:17;19.50;69.10
13928;DHT22;7036;50.834;4.718;2022-10-16T11:36:40;19.50;69.20
13928;DHT22;7036;50.834;4.718;2022-10-16T11:39:16;19.50;69.30
13928;DHT22;7036;50.834;4.718;2022-10-16T11:41:39;19.50;69.20
13928;DHT22;7036;50.834;4.718;2022-10-16T11:44:18;19.50;69.10
13928;DHT22;7036;50.834;4.718;2022-10-16T11:46:49;19.50;69.20
13928;DHT22;7036;50.834;4.718;2022-10-16T11:49:14;19.50;69.20
13928;DHT22;7036;50.834;4.718;2022-10-16T11:51:45;19.60;69.10
13928;DHT22;7036;50.834;4.718;2022-10-16T11:54:13;19.60;69.90
13928;DHT22;7036;50.834;4.718;2022-10-16T11:56:37;19.60;69.70
13928;DHT22;7036;50.834;4.718;2022-10-16T12:07:04;19.50;69.40
13928;DHT22;7036;50.834;4.718;2022-10-16T12:09:30;19.50;69.30
13928;DHT22;7036;50.834;4.718;2022-10-16T12:11:58;19.50;69.40
13928;DHT22;7036;50.834;4.718;2022-10-16T12:17:00;19.50;69.20
13928;DHT22;7036;50.834;4.718;2022-10-16T12:19:27;19.60;69.30
13928;DHT22;7036;50.834;4.718;2022-10-16T12:21:56;19.60;69.20
13928;DHT22;7036;50.834;4.718;2022-10-16T12:26:50;19.60;69.10
13928;DHT22;7036;50.834;4.718;2022-10-16T12:31:46;19.60;68.90
13928;DHT22;7036;50.834;4.718;2022-10-16T12:34:26;19.60;69.00
13928;DHT22;7036;50.834;4.718;2022-10-16T12:36:49;19.60;68.90
13928;DHT22;7036;50.834;4.718;2022-10-16T12:39:21;19.60;68.90
13928;DHT22;7036;50.834;4.718;2022-10-16T12:41:46;19.60;68.80
13928;DHT22;7036;50.834;4.718;2022-10-16T12:44:26;19.60;68.80
13928;DHT22;7036;50.834;4.718;2022-10-16T12:46:53;19.60;68.70
13928;DHT22;7036;50.834;4.718;2022-10-16T12:49:29;19.60;68.70
13928;DHT22;7036;50.834;4.718;2022-10-16T12:51:50;19.60;68.70
13928;DHT22;7036;50.834;4.718;2022-10-16T12:57:02;19.60;68.60
13928;DHT22;7036;50.834;4.718;2022-10-16T12:59:34;19.60;68.60
13928;DHT22;7036;50.834;4.718;2022-10-16T13:04:43;19.60;68.10
13928;DHT22;7036;50.834;4.718;2022-10-16T13:15:40;19.60;68.40
13928;DHT22;7036;50.834;4.718;2022-10-16T13:20:25;19.60;68.30
13928;DHT22;7036;50.834;4.718;2022-10-16T13:25:59;19.60;68.20
13928;DHT22;7036;50.834;4.718;2022-10-16T13:28:22;19.60;68.20
13928;DHT22;7036;50.834;4.718;2022-10-16T13:30:53;19.70;68.30
13928;DHT22;7036;50.834;4.718;2022-10-16T13:33:26;19.70;68.20
13928;DHT22;7036;50.834;4.718;2022-10-16T13:35:49;19.70;68.20
13928;DHT22;7036;50.834;4.718;2022-10-16T13:38:16;19.70;68.20
13928;DHT22;7036;50.834;4.718;2022-10-16T13:40:55;19.70;68.10
13928;DHT22;7036;50.834;4.718;2022-10-16T13:43:24;19.70;68.10
13928;DHT22;7036;50.834;4.718;2022-10-16T13:45:58;19.70;68.10
13928;DHT22;7036;50.834;4.718;2022-10-16T13:48:24;19.70;68.10
13928;DHT22;7036;50.834;4.718;2022-10-16T13:51:05;19.70;68.00
13928;DHT22;7036;50.834;4.718;2022-10-16T13:53:31;19.70;68.00
13928;DHT22;7036;50.834;4.718;2022-10-16T13:55:58;19.70;68.00
13928;DHT22;7036;50.834;4.718;2022-10-16T13:58:25;19.70;68.00
13928;DHT22;7036;50.834;4.718;2022-10-16T14:00:56;19.70;68.00
13928;DHT22;7036;50.834;4.718;2022-10-16T14:03:22;19.70;68.00
13928;DHT22;7036;50.834;4.718;2022-10-16T14:05:51;19.70;68.10
13928;DHT22;7036;50.834;4.718;2022-10-16T14:08:17;19.70;68.00
13928;DHT22;7036;50.834;4.718;2022-10-16T14:10:47;19.70;68.00
13928;DHT22;7036;50.834;4.718;2022-10-16T14:13:13;19.70;68.80
13928;DHT22;7036;50.834;4.718;2022-10-16T14:15:40;19.70;68.00
13928;DHT22;7036;50.834;4.718;2022-10-16T14:18:13;19.70;67.90
13928;DHT22;7036;50.834;4.718;2022-10-16T14:20:35;19.70;68.00
13928;DHT22;7036;50.834;4.718;2022-10-16T14:23:04;19.70;68.00
13928;DHT22;7036;50.834;4.718;2022-10-16T14:25:32;19.70;68.00
13928;DHT22;7036;50.834;4.718;2022-10-16T14:28:13;19.70;67.80
13928;DHT22;7036;50.834;4.718;2022-10-16T14:30:33;19.70;67.90
13928;DHT22;7036;50.834;4.718;2022-10-16T14:33:03;19.70;67.90
13928;DHT22;7036;50.834;4.718;2022-10-16T14:35:36;19.70;68.00
13928;DHT22;7036;50.834;4.718;2022-10-16T14:38:03;19.60;67.70
13928;DHT22;7036;50.834;4.718;2022-10-16T14:40:34;19.70;67.90
13928;DHT22;7036;50.834;4.718;2022-10-16T14:43:00;19.70;67.80
13928;DHT22;7036;50.834;4.718;2022-10-16T14:45:29;19.70;67.90
13928;DHT22;7036;50.834;4.718;2022-10-16T14:47:58;19.70;67.70
13928;DHT22;7036;50.834;4.718;2022-10-16T14:50:24;19.70;67.80
13928;DHT22;7036;50.834;4.718;2022-10-16T14:52:52;19.70;67.80
13928;DHT22;7036;50.834;4.718;2022-10-16T14:55:20;19.70;67.90
13928;DHT22;7036;50.834;4.718;2022-10-16T14:57:48;19.70;67.80
13928;DHT22;7036;50.834;4.718;2022-10-16T15:00:20;19.70;67.70
13928;DHT22;7036;50.834;4.718;2022-10-16T15:02:46;19.70;67.70
13928;DHT22;7036;50.834;4.718;2022-10-16T15:05:18;19.70;67.80
13928;DHT22;7036;50.834;4.718;2022-10-16T15:07:43;19.70;67.70
13928;DHT22;7036;50.834;4.718;2022-10-16T15:10:11;19.70;67.80
13928;DHT22;7036;50.834;4.718;2022-10-16T15:12:39;19.70;67.80
13928;DHT22;7036;50.834;4.718;2022-10-16T15:17:43;19.70;67.60
13928;DHT22;7036;50.834;4.718;2022-10-16T15:20:11;19.70;67.70
13928;DHT22;7036;50.834;4.718;2022-10-16T15:22:39;19.70;67.80
13928;DHT22;7036;50.834;4.718;2022-10-16T15:25:30;19.70;67.70
13928;DHT22;7036;50.834;4.718;2022-10-16T15:27:55;19.70;68.20
13928;DHT22;7036;50.834;4.718;2022-10-16T15:30:22;19.70;67.50
13928;DHT22;7036;50.834;4.718;2022-10-16T15:32:50;19.70;67.80
13928;DHT22;7036;50.834;4.718;2022-10-16T15:35:18;19.70;67.80
13928;DHT22;7036;50.834;4.718;2022-10-16T15:37:46;19.70;67.60
13928;DHT22;7036;50.834;4.718;2022-10-16T15:40:13;19.70;68.10
13928;DHT22;7036;50.834;4.718;2022-10-16T15:42:41;19.70;68.10
13928;DHT22;7036;50.834;4.718;2022-10-16T15:45:09;19.70;68.10
13928;DHT22;7036;50.834;4.718;2022-10-16T15:47:37;19.70;68.30
13928;DHT22;7036;50.834;4.718;2022-10-16T15:50:05;19.70;68.30
13928;DHT22;7036;50.834;4.718;2022-10-16T15:52:32;19.70;68.20
13928;DHT22;7036;50.834;4.718;2022-10-16T15:55:00;19.70;68.60
13928;DHT22;7036;50.834;4.718;2022-10-16T15:57:28;19.70;68.60
13928;DHT22;7036;50.834;4.718;2022-10-16T15:59:55;19.70;68.60
13928;DHT22;7036;50.834;4.718;2022-10-16T16:02:23;19.70;68.50
13928;DHT22;7036;50.834;4.718;2022-10-16T16:04:51;19.70;68.60
13928;DHT22;7036;50.834;4.718;2022-10-16T16:07:19;19.70;68.50
13928;DHT22;7036;50.834;4.718;2022-10-16T16:09:45;19.70;68.50
13928;DHT22;7036;50.834;4.718;2022-10-16T16:12:14;19.70;68.80
13928;DHT22;7036;50.834;4.718;2022-10-16T16:14:41;19.70;68.90
13928;DHT22;7036;50.834;4.718;2022-10-16T16:17:10;19.70;68.90
13928;DHT22;7036;50.834;4.718;2022-10-16T16:19:37;19.70;68.70
13928;DHT22;7036;50.834;4.718;2022-10-16T16:22:05;19.70;68.90
13928;DHT22;7036;50.834;4.718;2022-10-16T16:24:32;19.70;68.70
13928;DHT22;7036;50.834;4.718;2022-10-16T16:27:00;19.70;69.00
13928;DHT22;7036;50.834;4.718;2022-10-16T16:29:28;19.70;69.10
13928;DHT22;7036;50.834;4.718;2022-10-16T16:31:55;19.70;68.90
13928;DHT22;7036;50.834;4.718;2022-10-16T16:34:24;19.70;69.20
13928;DHT22;7036;50.834;4.718;2022-10-16T16:36:51;19.70;69.10
13928;DHT22;7036;50.834;4.718;2022-10-16T16:39:19;19.70;69.20
13928;DHT22;7036;50.834;4.718;2022-10-16T16:41:47;19.70;69.00
13928;DHT22;7036;50.834;4.718;2022-10-16T16:44:15;19.70;69.20
13928;DHT22;7036;50.834;4.718;2022-10-16T16:46:43;19.70;69.10
13928;DHT22;7036;50.834;4.718;2022-10-16T16:49:11;19.70;69.00
13928;DHT22;7036;50.834;4.718;2022-10-16T16:51:38;19.70;69.10
13928;DHT22;7036;50.834;4.718;2022-10-16T16:54:06;19.70;69.20
13928;DHT22;7036;50.834;4.718;2022-10-16T16:56:34;19.70;69.10
13928;DHT22;7036;50.834;4.718;2022-10-16T16:59:02;19.70;69.20
13928;DHT22;7036;50.834;4.718;2022-10-16T17:01:29;19.70;69.00
13928;DHT22;7036;50.834;4.718;2022-10-16T17:03:56;19.70;68.80
13928;DHT22;7036;50.834;4.718;2022-10-16T17:06:26;19.70;68.90
13928;DHT22;7036;50.834;4.718;2022-10-16T17:08:52;19.70;68.90
13928;DHT22;7036;50.834;4.718;2022-10-16T17:11:20;19.60;68.60
13928;DHT22;7036;50.834;4.718;2022-10-16T17:13:48;19.70;68.80
13928;DHT22;7036;50.834;4.718;2022-10-16T17:16:15;19.70;68.90
13928;DHT22;7036;50.834;4.718;2022-10-16T17:18:43;19.70;68.60
13928;DHT22;7036;50.834;4.718;2022-10-16T17:21:11;19.60;68.70